createdAt,value
2022-08-08T00:00:52.731Z,7.05
2022-08-08T00:03:28.283Z,7.93
2022-08-08T00:06:10.005Z,7.15
2022-08-08T00:08:49.234Z,7.55
2022-08-08T00:11:46.135Z,7.60
2022-08-08T00:14:48.030Z,8.25
2022-08-08T00:17:48.227Z,7.15
2022-08-08T00:20:42.643Z,6.45
2022-08-08T00:23:16.309Z,7.03
2022-08-08T00:25:50.867Z,6.90
2022-08-08T00:28:35.193Z,5.95
2022-08-08T00:32:20.809Z,6.60
2022-08-08T00:34:36.030Z,6.00
2022-08-08T00:37:16.625Z,6.18
2022-08-08T00:41:09.860Z,6.13
2022-08-08T00:43:12.095Z,5.20
2022-08-08T00:46:16.564Z,5.32
2022-08-08T00:49:11.713Z,5.07
2022-08-08T00:52:04.604Z,5.13
2022-08-08T00:54:37.753Z,4.90
2022-08-08T00:57:40.622Z,4.45
2022-08-08T01:00:28.923Z,4.85
2022-08-08T01:04:00.201Z,4.57
2022-08-08T01:06:11.907Z,4.75
2022-08-08T01:09:34.793Z,4.00
2022-08-08T01:12:25.765Z,4.25
2022-08-08T01:15:43.773Z,4.07
2022-08-08T01:18:52.854Z,3.42
2022-08-08T01:22:09.801Z,3.50
2022-08-08T01:24:57.786Z,3.58
2022-08-08T01:27:43.639Z,3.57
2022-08-08T01:30:20.871Z,3.78
2022-08-08T01:33:27.934Z,3.35
2022-08-08T01:36:31.581Z,3.05
2022-08-08T01:39:18.541Z,3.28
2022-08-08T01:42:03.025Z,3.45
2022-08-08T01:45:02.866Z,3.05
2022-08-08T01:48:15.974Z,2.78
2022-08-08T01:50:42.731Z,2.80
2022-08-08T01:54:33.096Z,3.15
2022-08-08T01:56:29.380Z,3.10
2022-08-08T01:59:03.141Z,2.83
2022-08-08T02:02:34.323Z,2.50
2022-08-08T02:05:33.789Z,2.50
2022-08-08T02:08:33.902Z,2.65
2022-08-08T02:11:58.940Z,3.15
2022-08-08T02:14:55.766Z,2.63
2022-08-08T02:17:42.526Z,2.25
2022-08-08T02:21:02.500Z,2.47
2022-08-08T02:23:31.860Z,2.70
2022-08-08T02:26:02.639Z,2.75
2022-08-08T02:28:57.804Z,2.45
2022-08-08T02:31:58.014Z,2.30
2022-08-08T02:34:34.476Z,2.20
2022-08-08T02:37:51.891Z,2.55
2022-08-08T02:40:15.936Z,2.25
2022-08-08T02:44:42.818Z,1.98
2022-08-08T02:46:20.155Z,2.15
2022-08-08T02:49:47.771Z,2.47
2022-08-08T02:52:50.773Z,2.30
2022-08-08T02:55:39.116Z,1.95
2022-08-08T02:58:51.137Z,2.08
2022-08-08T03:01:57.923Z,2.15
2022-08-08T03:05:09.182Z,2.10
2022-08-08T03:08:06.347Z,2.03
2022-08-08T03:11:37.724Z,2.30
2022-08-08T03:15:59.454Z,2.03
2022-08-08T03:17:39.873Z,1.90
2022-08-08T03:20:08.151Z,2.17
2022-08-08T03:22:56.499Z,2.17
2022-08-08T03:25:35.616Z,2.50
2022-08-08T03:28:21.467Z,2.03
2022-08-08T03:30:49.355Z,1.90
2022-08-08T03:33:55.079Z,1.88
2022-08-08T03:36:27.479Z,1.83
2022-08-08T03:39:07.430Z,1.92
2022-08-08T03:42:27.995Z,1.88
2022-08-08T03:44:33.642Z,1.90
2022-08-08T03:47:13.989Z,1.80
2022-08-08T03:50:00.067Z,2.00
2022-08-08T03:52:31.783Z,1.80
2022-08-08T03:55:09.871Z,2.30
2022-08-08T03:58:31.947Z,1.90
2022-08-08T04:00:27.560Z,1.70
2022-08-08T04:03:11.373Z,1.83
2022-08-08T04:05:39.955Z,1.67
2022-08-08T04:08:33.411Z,1.90
2022-08-08T04:11:10.871Z,2.28
2022-08-08T04:14:03.874Z,1.83
2022-08-08T04:16:38.612Z,1.80
2022-08-08T04:19:23.613Z,2.05
2022-08-08T04:21:52.079Z,2.03
2022-08-08T04:24:28.352Z,1.83
2022-08-08T04:26:58.790Z,2.00
2022-08-08T04:29:26.637Z,1.95
2022-08-08T04:31:59.292Z,1.88
2022-08-08T04:34:28.162Z,1.90
2022-08-08T04:36:59.373Z,2.20
2022-08-08T04:40:04.225Z,2.08
2022-08-08T04:42:15.874Z,2.00
2022-08-08T04:44:47.543Z,1.85
2022-08-08T04:47:15.135Z,1.90
2022-08-08T04:50:00.678Z,2.05
2022-08-08T04:52:33.647Z,1.83
2022-08-08T04:55:01.499Z,1.80
2022-08-08T04:57:28.826Z,1.95
2022-08-08T04:59:57.973Z,1.80
2022-08-08T05:02:31.548Z,1.80
2022-08-08T05:05:00.203Z,1.85
2022-08-08T05:07:42.558Z,2.17
2022-08-08T05:10:13.005Z,2.10
2022-08-08T05:12:42.957Z,2.15
2022-08-08T05:16:48.158Z,2.13
2022-08-08T05:18:14.079Z,2.05
2022-08-08T05:20:50.138Z,1.80
2022-08-08T05:25:44.309Z,2.13
2022-08-08T05:28:14.864Z,1.90
2022-08-08T05:30:47.426Z,2.20
2022-08-08T05:33:14.876Z,2.10
2022-08-08T05:35:44.582Z,2.22
2022-08-08T05:38:31.682Z,1.92
2022-08-08T05:41:02.413Z,2.10
2022-08-08T05:44:02.531Z,2.20
2022-08-08T05:46:20.727Z,2.00
2022-08-08T05:48:49.858Z,1.90
2022-08-08T05:51:20.160Z,2.10
2022-08-08T05:54:24.402Z,2.10
2022-08-08T05:56:41.961Z,2.70
2022-08-08T06:02:38.697Z,1.95
2022-08-08T06:05:32.996Z,2.05
2022-08-08T06:08:02.116Z,2.05
2022-08-08T06:10:33.546Z,2.00
2022-08-08T06:13:01.811Z,2.00
2022-08-08T06:15:49.929Z,2.08
2022-08-08T06:18:21.299Z,1.92
2022-08-08T06:20:56.459Z,2.10
2022-08-08T06:23:29.162Z,1.85
2022-08-08T06:26:44.889Z,2.17
2022-08-08T06:29:25.972Z,2.15
2022-08-08T06:32:11.271Z,2.53
2022-08-08T06:34:56.471Z,2.60
2022-08-08T06:37:37.993Z,2.25
2022-08-08T06:40:12.120Z,2.67
2022-08-08T06:43:09.540Z,2.55
2022-08-08T06:45:40.272Z,2.17
2022-08-08T06:48:08.595Z,1.85
2022-08-08T06:50:38.762Z,2.47
2022-08-08T06:53:09.752Z,2.25
2022-08-08T06:55:42.113Z,2.20
2022-08-08T06:58:10.030Z,2.33
2022-08-08T07:00:40.958Z,2.08
2022-08-08T07:03:52.410Z,2.65
2022-08-08T07:06:03.270Z,2.00
2022-08-08T07:08:37.181Z,2.60
2022-08-08T07:11:05.438Z,2.53
2022-08-08T07:14:00.527Z,2.35
2022-08-08T07:17:08.958Z,2.33
2022-08-08T07:19:51.392Z,2.42
2022-08-08T07:22:53.461Z,2.70
2022-08-08T07:25:21.339Z,2.10
2022-08-08T07:28:18.745Z,2.17
2022-08-08T07:30:46.967Z,1.88
2022-08-08T07:33:17.591Z,2.38
2022-08-08T07:35:47.181Z,2.28
2022-08-08T07:38:20.655Z,2.15
2022-08-08T07:40:55.603Z,2.60
2022-08-08T07:43:35.294Z,2.17
2022-08-08T07:46:23.989Z,2.97
2022-08-08T07:48:52.194Z,2.10
2022-08-08T07:51:23.251Z,2.72
2022-08-08T07:54:34.899Z,2.58
2022-08-08T07:57:22.769Z,2.17
2022-08-08T08:00:16.365Z,2.50
2022-08-08T08:02:44.516Z,2.35
2022-08-08T08:05:33.659Z,2.47
2022-08-08T08:08:10.257Z,2.20
2022-08-08T08:10:38.391Z,2.40
2022-08-08T08:13:43.185Z,2.00
2022-08-08T08:16:25.307Z,2.65
2022-08-08T08:19:02.098Z,1.92
2022-08-08T08:21:44.852Z,2.45
2022-08-08T08:24:18.685Z,2.40
2022-08-08T08:26:52.397Z,2.38
2022-08-08T08:29:20.398Z,2.30
2022-08-08T08:31:53.992Z,2.20
2022-08-08T08:34:31.861Z,2.10
2022-08-08T08:37:00.163Z,2.63
2022-08-08T08:40:00.547Z,2.10
2022-08-08T08:42:19.419Z,2.20
2022-08-08T08:44:57.560Z,2.25
2022-08-08T08:47:26.046Z,2.30
2022-08-08T08:49:52.744Z,2.03
2022-08-08T08:52:22.188Z,1.98
2022-08-08T08:54:59.815Z,2.60
2022-08-08T08:57:30.208Z,1.98
2022-08-08T09:00:04.838Z,2.47
2022-08-08T09:02:35.496Z,2.60
2022-08-08T09:05:07.841Z,2.25
2022-08-08T09:07:52.387Z,2.50
2022-08-08T09:10:32.126Z,2.45
2022-08-08T09:13:01.774Z,2.33
2022-08-08T09:15:40.737Z,2.38
2022-08-08T09:18:09.548Z,2.00
2022-08-08T09:22:01.167Z,2.28
2022-08-08T09:23:33.375Z,2.00
2022-08-08T09:26:12.729Z,2.38
2022-08-08T09:28:40.553Z,1.98
2022-08-08T09:31:16.636Z,2.22
2022-08-08T09:34:06.152Z,1.60
2022-08-08T09:36:36.065Z,1.65
2022-08-08T09:39:10.258Z,1.80
2022-08-08T09:42:14.243Z,1.80
2022-08-08T09:44:47.066Z,1.77
2022-08-08T09:48:04.817Z,1.80
2022-08-08T09:50:13.648Z,1.92
2022-08-08T09:52:58.240Z,1.80
2022-08-08T09:56:05.473Z,1.60
2022-08-08T09:58:27.731Z,1.60
2022-08-08T10:01:15.207Z,1.55
2022-08-08T10:04:02.478Z,1.70
2022-08-08T10:06:35.643Z,2.00
2022-08-08T10:09:03.086Z,1.50
2022-08-08T10:12:26.491Z,1.80
2022-08-08T10:14:28.390Z,1.85
2022-08-08T10:17:56.281Z,1.60
2022-08-08T10:20:00.082Z,1.45
2022-08-08T10:22:29.964Z,1.40
2022-08-08T10:25:03.240Z,1.58
2022-08-08T10:27:42.193Z,1.73
2022-08-08T10:30:23.601Z,1.85
2022-08-08T10:33:00.041Z,2.28
2022-08-08T10:36:08.163Z,2.03
2022-08-08T10:38:17.241Z,2.45
2022-08-08T10:40:46.000Z,1.90
2022-08-08T10:43:14.288Z,2.15
2022-08-08T10:45:56.436Z,1.77
2022-08-08T10:48:57.325Z,1.85
2022-08-08T10:51:40.829Z,1.90
2022-08-08T10:54:21.386Z,1.73
2022-08-08T10:57:10.304Z,1.92
2022-08-08T10:59:39.704Z,1.83
2022-08-08T11:02:08.190Z,1.83
2022-08-08T11:04:53.737Z,1.88
2022-08-08T11:08:31.622Z,2.00
2022-08-08T11:10:28.516Z,1.52
2022-08-08T11:13:28.241Z,2.45
2022-08-08T11:15:53.143Z,2.00
2022-08-08T11:18:30.266Z,1.67
2022-08-08T11:20:59.043Z,1.73
2022-08-08T11:23:31.197Z,1.65
2022-08-08T11:25:59.283Z,1.67
2022-08-08T11:28:29.738Z,2.03
2022-08-08T11:31:00.404Z,1.60
2022-08-08T11:33:35.326Z,1.55
2022-08-08T11:36:15.716Z,1.77
2022-08-08T11:38:55.007Z,1.60
2022-08-08T11:41:33.504Z,1.50
2022-08-08T11:44:01.647Z,1.80
2022-08-08T11:46:31.844Z,1.60
2022-08-08T11:49:03.940Z,1.55
2022-08-08T11:51:40.304Z,1.38
2022-08-08T11:54:31.923Z,1.60
2022-08-08T11:57:30.225Z,1.30
2022-08-08T12:00:07.124Z,1.58
2022-08-08T12:02:54.266Z,1.27
2022-08-08T12:05:36.915Z,1.65
2022-08-08T12:08:04.587Z,2.15
2022-08-08T12:10:32.325Z,1.27
2022-08-08T12:13:04.146Z,1.40
2022-08-08T12:15:42.280Z,1.38
2022-08-08T12:18:24.286Z,1.50
2022-08-08T12:20:54.248Z,1.50
2022-08-08T12:23:44.024Z,1.27
2022-08-08T12:26:54.155Z,1.38
2022-08-08T12:29:36.198Z,1.30
2022-08-08T12:32:16.924Z,1.75
2022-08-08T12:34:58.929Z,1.35
2022-08-08T12:37:40.434Z,1.40
2022-08-08T12:40:23.728Z,1.17
2022-08-08T12:42:52.798Z,1.30
2022-08-08T12:45:58.770Z,1.10
2022-08-08T12:48:38.797Z,1.33
2022-08-08T12:51:11.352Z,1.20
2022-08-08T12:53:58.516Z,1.52
2022-08-08T12:56:34.355Z,1.38
2022-08-08T12:59:01.471Z,1.70
2022-08-08T13:01:38.099Z,1.58
2022-08-08T13:04:18.902Z,2.00
2022-08-08T13:07:00.844Z,1.33
2022-08-08T13:10:01.908Z,1.83
2022-08-08T13:12:29.111Z,1.48
2022-08-08T13:14:57.650Z,1.45
2022-08-08T13:18:07.901Z,1.80
2022-08-08T13:20:19.837Z,1.35
2022-08-08T13:22:47.460Z,1.73
2022-08-08T13:25:22.046Z,1.33
2022-08-08T13:27:53.263Z,1.50
2022-08-08T13:30:28.161Z,1.50
2022-08-08T13:32:59.407Z,1.50
2022-08-08T13:35:38.194Z,1.75
2022-08-08T13:38:08.523Z,1.55
2022-08-08T13:40:41.029Z,1.60
2022-08-08T13:43:08.755Z,1.60
2022-08-08T13:45:36.805Z,1.85
2022-08-08T13:48:12.195Z,1.60
2022-08-08T13:50:50.746Z,1.30
2022-08-08T13:53:27.222Z,1.50
2022-08-08T13:55:59.090Z,1.40
2022-08-08T13:58:29.397Z,2.28
2022-08-08T14:00:56.807Z,1.58
2022-08-08T14:03:52.354Z,1.17
2022-08-08T14:06:33.550Z,1.65
2022-08-08T14:09:24.590Z,1.45
2022-08-08T14:11:48.078Z,1.95
2022-08-08T14:14:20.725Z,1.65
2022-08-08T14:16:52.504Z,1.13
2022-08-08T14:19:57.911Z,1.60
2022-08-08T14:22:21.450Z,1.27
2022-08-08T14:24:50.566Z,1.60
2022-08-08T14:27:40.559Z,1.55
2022-08-08T14:30:18.981Z,1.30
2022-08-08T14:32:53.464Z,1.52
2022-08-08T14:35:28.314Z,1.40
2022-08-08T14:38:09.462Z,1.20
2022-08-08T14:40:40.440Z,1.13
2022-08-08T14:43:31.596Z,1.40
2022-08-08T14:46:06.328Z,1.52
2022-08-08T14:48:52.516Z,1.52
2022-08-08T14:51:47.119Z,1.75
2022-08-08T14:54:14.247Z,1.08
2022-08-08T14:56:55.179Z,1.50
2022-08-08T14:59:31.369Z,1.70
2022-08-08T15:02:10.770Z,1.45
2022-08-08T15:04:42.695Z,1.48
2022-08-08T15:07:22.686Z,1.33
2022-08-08T15:09:51.407Z,1.55
2022-08-08T15:12:27.076Z,1.40
2022-08-08T15:14:55.046Z,1.75
2022-08-08T15:17:23.256Z,1.17
2022-08-08T15:19:51.278Z,1.63
2022-08-08T15:22:33.989Z,1.52
2022-08-08T15:25:01.488Z,1.48
2022-08-08T15:28:04.376Z,1.37
2022-08-08T15:30:23.643Z,1.40
2022-08-08T15:32:53.574Z,1.83
2022-08-08T15:35:22.647Z,1.27
2022-08-08T15:37:49.404Z,1.20
2022-08-08T15:40:16.313Z,1.30
2022-08-08T15:42:49.689Z,1.73
2022-08-08T15:45:16.599Z,1.63
2022-08-08T15:48:15.136Z,1.30
2022-08-08T15:50:50.260Z,1.33
2022-08-08T15:53:18.098Z,1.45
2022-08-08T15:55:44.956Z,1.60
2022-08-08T15:58:14.179Z,1.35
2022-08-08T16:00:40.966Z,1.50
2022-08-08T16:03:17.107Z,1.73
2022-08-08T16:05:53.227Z,2.17
2022-08-08T16:08:28.952Z,1.48
2022-08-08T16:13:04.683Z,1.50
2022-08-08T16:13:45.372Z,2.20
2022-08-08T16:16:18.042Z,1.35
2022-08-08T16:18:57.453Z,1.48
2022-08-08T16:21:29.060Z,1.73
2022-08-08T16:23:57.406Z,1.65
2022-08-08T16:26:34.216Z,1.52
2022-08-08T16:29:16.255Z,1.40
2022-08-08T16:31:48.751Z,1.30
2022-08-08T16:34:18.667Z,1.30
2022-08-08T16:36:46.100Z,1.45
2022-08-08T16:39:59.870Z,1.48
2022-08-08T16:42:04.935Z,1.60
2022-08-08T16:44:34.256Z,1.50
2022-08-08T16:47:31.696Z,1.38
2022-08-08T16:50:15.108Z,1.70
2022-08-08T16:55:01.410Z,1.40
2022-08-08T16:55:55.572Z,1.20
2022-08-08T16:58:25.308Z,1.42
2022-08-08T17:00:52.939Z,1.50
2022-08-08T17:03:25.127Z,1.50
2022-08-08T17:06:35.630Z,1.20
2022-08-08T17:08:54.121Z,1.45
2022-08-08T17:11:20.911Z,1.67
2022-08-08T17:14:00.925Z,1.60
2022-08-08T17:16:29.318Z,1.83
2022-08-08T17:18:58.482Z,1.50
2022-08-08T17:21:41.456Z,1.45
2022-08-08T17:24:10.600Z,1.33
2022-08-08T17:26:53.727Z,1.90
2022-08-08T17:29:24.938Z,1.90
2022-08-08T17:31:52.135Z,1.55
2022-08-08T17:34:37.112Z,1.55
2022-08-08T17:37:09.425Z,1.80
2022-08-08T17:40:05.030Z,1.75
2022-08-08T17:42:26.201Z,1.50
2022-08-08T17:44:53.577Z,1.85
2022-08-08T17:47:24.110Z,1.50
2022-08-08T17:49:52.513Z,1.63
2022-08-08T17:52:23.247Z,1.52
2022-08-08T17:54:51.796Z,1.40
2022-08-08T17:57:23.521Z,1.50
2022-08-08T17:59:51.703Z,1.50
2022-08-08T18:02:26.077Z,1.80
2022-08-08T18:04:58.416Z,1.67
2022-08-08T18:08:11.625Z,1.80
2022-08-08T18:10:15.225Z,1.70
2022-08-08T18:12:44.335Z,1.80
2022-08-08T18:15:13.164Z,1.55
2022-08-08T18:18:09.545Z,1.70
2022-08-08T18:20:42.670Z,1.52
2022-08-08T18:23:15.216Z,1.80
2022-08-08T18:25:42.981Z,1.77
2022-08-08T18:28:13.164Z,1.77
2022-08-08T18:30:41.852Z,1.90
2022-08-08T18:33:36.611Z,1.90
2022-08-08T18:36:02.978Z,1.85
2022-08-08T18:38:31.130Z,2.03
2022-08-08T18:40:59.477Z,1.73
2022-08-08T18:43:42.446Z,1.58
2022-08-08T18:46:56.302Z,1.60
2022-08-08T18:48:57.648Z,1.77
2022-08-08T18:51:53.217Z,1.80
2022-08-08T18:54:22.549Z,1.55
2022-08-08T18:56:57.208Z,1.65
2022-08-08T18:59:24.256Z,1.73
2022-08-08T19:02:26.771Z,1.90
2022-08-08T19:04:38.146Z,1.88
2022-08-08T19:07:05.179Z,1.67
2022-08-08T19:09:49.167Z,1.67
2022-08-08T19:12:19.895Z,1.60
2022-08-08T19:14:53.671Z,1.77
2022-08-08T19:17:29.012Z,1.50
2022-08-08T19:22:30.007Z,1.60
2022-08-08T19:26:01.473Z,1.75
2022-08-08T19:27:56.283Z,1.67
2022-08-08T19:30:27.174Z,2.10
2022-08-08T19:32:58.053Z,2.25
2022-08-08T19:35:45.380Z,2.40
2022-08-08T19:38:17.314Z,1.80
2022-08-08T19:40:55.798Z,1.80
2022-08-08T19:43:28.119Z,1.48
2022-08-08T19:45:59.566Z,1.95
2022-08-08T19:48:30.678Z,2.00
2022-08-08T19:50:59.585Z,2.40
2022-08-08T19:53:50.768Z,1.77
2022-08-08T19:56:16.477Z,2.00
2022-08-08T19:58:54.761Z,1.50
2022-08-08T20:01:31.774Z,1.95
2022-08-08T20:04:08.904Z,1.50
2022-08-08T20:06:36.443Z,1.88
2022-08-08T20:09:04.525Z,1.75
2022-08-08T20:11:37.526Z,1.90
2022-08-08T20:14:31.783Z,2.03
2022-08-08T20:16:57.227Z,2.17
2022-08-08T20:19:26.788Z,1.95
2022-08-08T20:24:32.272Z,1.98
2022-08-08T20:26:59.133Z,2.00
2022-08-08T20:29:26.025Z,2.25
2022-08-08T20:32:14.254Z,1.63
2022-08-08T20:34:47.497Z,1.92
2022-08-08T20:37:14.681Z,1.70
2022-08-08T20:39:51.971Z,1.58
2022-08-08T20:42:29.119Z,1.73
2022-08-08T20:44:57.759Z,1.77
2022-08-08T20:47:25.343Z,1.70
2022-08-08T20:49:55.886Z,1.95
2022-08-08T20:52:27.469Z,1.60
2022-08-08T20:54:55.162Z,1.63
2022-08-08T20:57:22.029Z,1.48
2022-08-08T20:59:54.163Z,1.70
2022-08-08T21:02:25.567Z,1.67
2022-08-08T21:05:00.840Z,1.55
2022-08-08T21:07:46.983Z,1.60
2022-08-08T21:10:15.479Z,1.80
2022-08-08T21:12:45.967Z,2.15
2022-08-08T21:15:16.483Z,1.52
2022-08-08T21:18:00.967Z,1.70
2022-08-08T21:20:34.149Z,1.80
2022-08-08T21:23:01.118Z,1.60
2022-08-08T21:25:36.154Z,1.40
2022-08-08T21:28:09.499Z,1.33
2022-08-08T21:30:42.001Z,1.45
2022-08-08T21:33:11.024Z,1.67
2022-08-08T21:36:13.966Z,1.75
2022-08-08T21:38:26.607Z,1.60
2022-08-08T21:40:56.171Z,1.45
2022-08-08T21:43:34.361Z,1.63
2022-08-08T21:48:05.522Z,1.40
2022-08-08T21:48:55.730Z,1.58
2022-08-08T21:54:17.368Z,1.63
2022-08-08T21:54:27.501Z,1.70
2022-08-08T21:57:02.886Z,1.50
2022-08-08T22:00:01.849Z,1.40
2022-08-08T22:02:19.437Z,1.73
2022-08-08T22:04:52.323Z,1.55
2022-08-08T22:07:19.156Z,1.55
2022-08-08T22:09:46.485Z,1.63
2022-08-08T22:12:17.010Z,1.38
2022-08-08T22:14:50.233Z,1.35
2022-08-08T22:17:19.553Z,1.60
2022-08-08T22:20:12.822Z,1.52
2022-08-08T22:22:37.943Z,1.92
2022-08-08T22:25:12.431Z,1.60
2022-08-08T22:28:02.784Z,1.63
2022-08-08T22:30:32.427Z,1.33
2022-08-08T22:33:01.441Z,1.23
2022-08-08T22:36:04.035Z,1.30
2022-08-08T22:38:17.488Z,1.33
2022-08-08T22:40:48.256Z,1.52
2022-08-08T22:43:17.311Z,1.38
2022-08-08T22:45:46.686Z,1.35
2022-08-08T22:48:21.474Z,1.45
2022-08-08T22:50:48.642Z,1.30
2022-08-08T22:54:32.963Z,1.60
2022-08-08T22:56:02.985Z,1.40
2022-08-08T22:58:33.861Z,1.50
2022-08-08T23:01:30.182Z,1.60
2022-08-08T23:03:53.286Z,1.02
2022-08-08T23:06:22.179Z,1.17
2022-08-08T23:08:55.463Z,1.80
2022-08-08T23:11:31.127Z,1.33
2022-08-08T23:14:13.053Z,1.35
2022-08-08T23:16:43.810Z,1.30
2022-08-08T23:19:15.157Z,1.40
2022-08-08T23:21:42.394Z,1.20
2022-08-08T23:24:09.447Z,1.50
2022-08-08T23:26:37.794Z,1.40
2022-08-08T23:29:10.850Z,1.40
2022-08-08T23:31:38.912Z,1.45
2022-08-08T23:34:17.441Z,1.52
2022-08-08T23:36:46.027Z,1.40
2022-08-08T23:39:12.950Z,1.40
2022-08-08T23:41:45.599Z,1.23
2022-08-08T23:44:14.645Z,1.20
2022-08-08T23:49:05.468Z,1.23
2022-08-08T23:49:28.907Z,1.25
2022-08-08T23:52:05.153Z,1.67
2022-08-08T23:54:59.959Z,1.50
2022-08-08T23:57:39.403Z,1.60
